Time,TemperatureF,DewpointF,PressureIn,WindDirection,WindDirectionDegrees,WindSpeedMPH,WindSpeedGustMPH,Humidity,HourlyPrecipIn,Conditions,Clouds,dailyrainin,SolarRadiationWatts/m^2,SoftwareType,DateUTC
2013-07-03 00:03:00,59.0,55.0,-100.00,East,83,1.0,2.0,87,-99.99,,,0.00,0.000000,,2013-07-03 07:03:00,
2013-07-03 03:37:00,55.0,55.0,-100.00,NE,43,0.0,2.0,99,-99.99,,,0.00,0.000000,,2013-07-03 10:37:00,
2013-07-03 03:45:00,55.0,55.0,-100.00,NE,43,0.0,2.0,99,-99.99,,,0.00,0.000000,,2013-07-03 10:45:00,
2013-07-03 04:02:00,55.0,55.0,-100.00,NE,43,0.0,2.0,99,-99.99,,,0.00,0.000000,,2013-07-03 11:02:00,
2013-07-03 04:38:00,56.0,56.0,-100.00,NE,36,0.0,1.0,99,0.00,,,0.00,0.000000,,2013-07-03 11:38:00,
2013-07-03 05:03:00,56.0,56.0,-100.00,NE,36,0.0,1.0,99,0.00,,,0.00,0.000000,,2013-07-03 12:03:00,
2013-07-03 05:38:00,57.0,57.0,-100.00,South,175,1.0,1.0,99,0.00,,,0.00,0.000000,,2013-07-03 12:38:00,
2013-07-03 05:45:00,57.0,57.0,-100.00,South,175,1.0,1.0,99,0.00,,,0.00,0.000000,,2013-07-03 12:45:00,
2013-07-03 06:03:00,57.0,57.0,-100.00,South,175,1.0,1.0,99,0.00,,,0.00,0.000000,,2013-07-03 13:03:00,
2013-07-03 07:47:00,59.0,56.0,-100.00,WNW,283,1.0,2.0,91,0.00,,,0.00,71.000000,,2013-07-03 14:47:00,
2013-07-03 08:02:00,59.0,56.0,-100.00,WNW,283,1.0,2.0,91,0.00,,,0.00,71.000000,,2013-07-03 15:02:00,
2013-07-03 08:38:00,59.0,54.0,-100.00,NW,314,1.0,4.0,82,0.00,,,0.00,66.000000,,2013-07-03 15:38:00,
2013-07-03 08:47:00,59.0,54.0,-100.00,NW,314,1.0,4.0,82,0.00,,,0.00,66.000000,,2013-07-03 15:47:00,
2013-07-03 08:56:00,59.0,54.0,-100.00,NW,314,1.0,4.0,82,0.00,,,0.00,66.000000,,2013-07-03 15:56:00,
2013-07-03 09:40:00,71.0,57.0,-100.00,East,83,1.0,5.0,61,0.00,,,0.00,490.000000,,2013-07-03 16:40:00,
2013-07-03 09:46:00,71.0,57.0,-100.00,East,83,1.0,5.0,61,0.00,,,0.00,490.000000,,2013-07-03 16:46:00,
2013-07-03 09:57:00,71.0,57.0,-100.00,East,83,1.0,5.0,61,0.00,,,0.00,490.000000,,2013-07-03 16:57:00,
2013-07-03 10:42:00,75.0,55.0,-100.00,WSW,249,3.0,10.0,50,0.00,,,0.00,864.000000,,2013-07-03 17:42:00,
2013-07-03 10:48:00,75.0,55.0,-100.00,WSW,249,3.0,10.0,50,0.00,,,0.00,864.000000,,2013-07-03 17:48:00,
2013-07-03 11:03:00,75.0,55.0,-100.00,WSW,249,3.0,10.0,50,0.00,,,0.00,864.000000,,2013-07-03 18:03:00,
2013-07-03 12:02:00,79.0,55.0,-100.00,SSE,158,3.0,12.0,44,0.00,,,0.00,1040.000000,,2013-07-03 19:02:00,
2013-07-03 12:38:00,83.0,41.0,-100.00,NE,55,3.0,11.0,23,0.00,,,0.00,1181.000000,,2013-07-03 19:38:00,
2013-07-03 12:48:00,83.0,41.0,-100.00,NE,55,3.0,11.0,23,0.00,,,0.00,1181.000000,,2013-07-03 19:48:00,
2013-07-03 13:01:00,83.0,41.0,-100.00,NE,55,3.0,11.0,23,0.00,,,0.00,1181.000000,,2013-07-03 20:01:00,
2013-07-03 13:37:00,83.0,32.0,-100.00,South,183,4.0,21.0,16,0.00,,,0.00,1266.000000,,2013-07-03 20:37:00,
2013-07-03 13:55:00,83.0,32.0,-100.00,South,183,4.0,21.0,16,0.00,,,0.00,1266.000000,,2013-07-03 20:55:00,
2013-07-03 14:37:00,86.0,38.0,-100.00,ENE,60,4.0,17.0,18,0.00,,,0.00,1271.000000,,2013-07-03 21:37:00,
2013-07-03 14:45:00,86.0,38.0,-100.00,ENE,60,4.0,17.0,18,0.00,,,0.00,1271.000000,,2013-07-03 21:45:00,
2013-07-03 14:54:00,86.0,38.0,-100.00,ENE,60,4.0,17.0,18,0.00,,,0.00,1271.000000,,2013-07-03 21:54:00,
2013-07-03 15:01:00,86.0,38.0,-100.00,ENE,60,4.0,17.0,18,0.00,,,0.00,1271.000000,,2013-07-03 22:01:00,
2013-07-03 15:38:00,88.0,38.0,-100.00,NE,48,3.0,12.0,17,-99.99,,,-99.99,1212.000000,,2013-07-03 22:38:00,
2013-07-03 15:46:00,88.0,38.0,-100.00,NE,48,3.0,12.0,17,-99.99,,,-99.99,1212.000000,,2013-07-03 22:46:00,
2013-07-03 15:55:00,88.0,38.0,-100.00,NE,48,3.0,12.0,17,-99.99,,,-99.99,1212.000000,,2013-07-03 22:55:00,
2013-07-03 17:50:00,87.0,41.0,-100.00,NW,309,3.0,14.0,20,-99.99,,,0.00,912.000000,,2013-07-04 00:50:00,
2013-07-03 17:56:00,87.0,41.0,-100.00,NW,309,3.0,14.0,20,-99.99,,,0.00,912.000000,,2013-07-04 00:56:00,
2013-07-03 19:41:00,76.0,49.0,-100.00,North,349,2.0,9.0,39,-99.99,,,0.00,301.000000,,2013-07-04 02:41:00,
2013-07-03 19:49:00,76.0,49.0,-100.00,North,349,2.0,9.0,39,-99.99,,,0.00,301.000000,,2013-07-04 02:49:00,
2013-07-03 19:56:00,76.0,49.0,-100.00,North,349,2.0,9.0,39,-99.99,,,0.00,301.000000,,2013-07-04 02:56:00,
2013-07-03 20:36:00,68.0,53.0,-100.00,West,261,1.0,8.0,58,0.00,,,0.00,91.000000,,2013-07-04 03:36:00,
2013-07-03 20:46:00,68.0,53.0,-100.00,West,261,1.0,8.0,58,0.00,,,0.00,91.000000,,2013-07-04 03:46:00,
2013-07-03 20:56:00,68.0,53.0,-100.00,West,261,1.0,8.0,58,0.00,,,0.00,91.000000,,2013-07-04 03:56:00,
2013-07-03 21:01:00,68.0,53.0,-100.00,West,261,1.0,8.0,58,0.00,,,0.00,91.000000,,2013-07-04 04:01:00,
2013-07-03 21:43:00,61.0,51.0,-100.00,NNE,28,1.0,6.0,70,0.00,,,0.00,8.000000,,2013-07-04 04:43:00,
2013-07-03 21:52:00,61.0,51.0,-100.00,NNE,28,1.0,6.0,70,0.00,,,0.00,8.000000,,2013-07-04 04:52:00,
2013-07-03 22:01:00,61.0,51.0,-100.00,NNE,28,1.0,6.0,70,0.00,,,0.00,8.000000,,2013-07-04 05:01:00,
2013-07-03 22:33:00,57.0,48.0,-100.00,SW,235,1.0,6.0,72,0.00,,,0.00,0.000000,,2013-07-04 05:33:00,
2013-07-03 22:43:00,57.0,48.0,-100.00,SW,235,1.0,6.0,72,0.00,,,0.00,0.000000,,2013-07-04 05:43:00,
2013-07-03 22:52:00,57.0,48.0,-100.00,SW,235,1.0,6.0,72,0.00,,,0.00,0.000000,,2013-07-04 05:52:00,
2013-07-03 23:01:00,57.0,48.0,-100.00,SW,235,1.0,6.0,72,0.00,,,0.00,0.000000,,2013-07-04 06:01:00,
2013-07-03 23:34:00,54.0,48.0,-100.00,NW,326,1.0,3.0,81,0.00,,,0.00,0.000000,,2013-07-04 06:34:00,
2013-07-03 23:43:00,54.0,48.0,-100.00,NW,326,1.0,3.0,81,0.00,,,0.00,0.000000,,2013-07-04 06:43:00,
2013-07-03 23:53:00,54.0,48.0,-100.00,NW,326,1.0,3.0,81,0.00,,,0.00,0.000000,,2013-07-04 06:53:00,